Time,TemperatureF,DewpointF,PressureIn,WindDirection,WindDirectionDegrees,WindSpeedMPH,WindSpeedGustMPH,Humidity,HourlyPrecipIn,Conditions,Clouds,dailyrainin,SoftwareType,DateUTC
2013-02-05 08:00:00,32.0,23.0,29.31,North,0,0.0,0.0,69,0.00,CLR,,0.00,WeatherDisplay:10.37,2013-02-05 15:00:00,
2013-02-05 08:05:00,32.2,23.1,29.32,North,0,0.0,0.0,69,0.00,CLR,,0.00,WeatherDisplay:10.37,2013-02-05 15:05:00,
2013-02-05 08:10:00,32.2,23.1,29.32,North,0,0.0,0.0,69,0.00,CLR,,0.00,WeatherDisplay:10.37,2013-02-05 15:10:00,
2013-02-05 08:15:00,32.4,23.3,29.32,NNW,338,0.0,0.0,69,0.00,CLR,,0.00,WeatherDisplay:10.37,2013-02-05 15:15:00,
2013-02-05 08:20:00,32.5,23.5,29.32,NW,315,0.0,0.0,69,0.00,CLR,,0.00,WeatherDisplay:10.37,2013-02-05 15:20:00,
2013-02-05 08:25:00,32.5,23.5,29.32,WNW,292,0.0,0.0,69,0.00,CLR,,0.00,WeatherDisplay:10.37,2013-02-05 15:25:00,
2013-02-05 08:31:00,32.9,23.8,29.32,North,0,0.0,0.0,69,0.00,CLR,,0.00,WeatherDisplay:10.37,2013-02-05 15:31:00,
2013-02-05 08:36:00,33.1,24.0,29.32,NW,315,0.0,0.0,69,0.00,CLR,,0.00,WeatherDisplay:10.37,2013-02-05 15:36:00,
2013-02-05 08:41:00,33.3,24.2,29.32,NW,315,0.0,0.0,69,0.00,CLR,,0.00,WeatherDisplay:10.37,2013-02-05 15:41:00,
2013-02-05 08:46:00,33.3,24.2,29.33,NNW,338,0.0,0.0,69,0.00,CLR,,0.00,WeatherDisplay:10.37,2013-02-05 15:46:00,
2013-02-05 08:51:00,33.8,24.7,29.33,NNW,338,0.0,0.0,69,0.00,CLR,,0.00,WeatherDisplay:10.37,2013-02-05 15:51:00,
2013-02-05 08:56:00,34.0,24.9,29.33,NNW,338,0.0,0.0,69,0.00,CLR,,0.00,WeatherDisplay:10.37,2013-02-05 15:56:00,
2013-02-05 09:01:00,34.2,25.0,29.33,NW,315,0.0,0.0,69,0.00,CLR,,0.00,WeatherDisplay:10.37,2013-02-05 16:01:00,
2013-02-05 09:06:00,34.3,25.2,29.32,NNW,338,0.0,0.0,69,0.00,CLR,,0.00,WeatherDisplay:10.37,2013-02-05 16:06:00,
2013-02-05 09:11:00,34.7,25.2,29.32,NNW,338,0.0,0.0,68,0.00,CLR,,0.00,WeatherDisplay:10.37,2013-02-05 16:11:00,
2013-02-05 09:16:00,35.1,25.6,29.32,North,0,0.0,0.0,68,0.00,CLR,,0.00,WeatherDisplay:10.37,2013-02-05 16:16:00,
2013-02-05 09:21:00,35.1,25.6,29.32,NNW,338,0.0,0.2,68,0.00,CLR,,0.00,WeatherDisplay:10.37,2013-02-05 16:21:00,
2013-02-05 09:26:00,35.4,25.9,29.32,SW,225,0.0,0.2,68,0.00,CLR,,0.00,WeatherDisplay:10.37,2013-02-05 16:26:00,
2013-02-05 09:31:00,35.6,26.1,29.32,North,0,0.0,0.0,68,0.00,CLR,,0.00,WeatherDisplay:10.37,2013-02-05 16:31:00,
2013-02-05 09:36:00,35.8,26.2,29.32,NNW,338,0.0,0.0,68,0.00,CLR,,0.00,WeatherDisplay:10.37,2013-02-05 16:36:00,
2013-02-05 09:41:00,36.0,26.4,29.32,North,0,0.0,0.0,68,0.00,CLR,,0.00,WeatherDisplay:10.37,2013-02-05 16:41:00,
2013-02-05 09:46:00,36.3,26.8,29.31,North,0,0.0,0.0,68,0.00,CLR,,0.00,WeatherDisplay:10.37,2013-02-05 16:46:00,
2013-02-05 09:51:00,36.5,26.9,29.31,North,0,0.0,0.0,68,0.00,CLR,,0.00,WeatherDisplay:10.37,2013-02-05 16:51:00,
2013-02-05 09:56:00,36.5,26.6,29.31,NNW,338,0.0,0.0,67,0.00,CLR,,0.00,WeatherDisplay:10.37,2013-02-05 16:56:00,
2013-02-05 10:01:00,36.7,26.7,29.31,ENE,68,0.0,0.0,67,0.00,CLR,,0.00,WeatherDisplay:10.37,2013-02-05 17:01:00,
2013-02-05 10:06:00,36.9,26.9,29.31,NE,45,0.0,0.0,67,0.00,CLR,,0.00,WeatherDisplay:10.37,2013-02-05 17:06:00,
2013-02-05 10:11:00,36.9,26.9,29.31,WSW,248,0.0,0.0,67,0.00,CLR,,0.00,WeatherDisplay:10.37,2013-02-05 17:11:00,
2013-02-05 10:16:00,36.9,26.9,29.31,SSW,202,0.0,0.0,67,0.00,CLR,,0.00,WeatherDisplay:10.37,2013-02-05 17:16:00,
2013-02-05 10:21:00,36.9,26.9,29.31,North,0,0.0,0.0,67,0.00,CLR,,0.00,WeatherDisplay:10.37,2013-02-05 17:21:00,
2013-02-05 10:26:00,37.2,26.9,29.30,SSW,202,0.0,0.0,66,0.00,CLR,,0.00,WeatherDisplay:10.37,2013-02-05 17:26:00,
2013-02-05 10:31:00,37.6,27.2,29.30,SE,135,0.0,0.0,66,0.00,CLR,,0.00,WeatherDisplay:10.37,2013-02-05 17:31:00,
2013-02-05 10:36:00,37.6,27.2,29.30,WSW,248,0.0,0.0,66,0.00,CLR,,0.00,WeatherDisplay:10.37,2013-02-05 17:36:00,
2013-02-05 10:41:00,37.9,27.6,29.30,SSW,202,0.0,0.0,66,0.00,CLR,,0.00,WeatherDisplay:10.37,2013-02-05 17:41:00,
2013-02-05 10:46:00,38.3,27.9,29.29,North,0,0.0,0.0,66,0.00,CLR,,0.00,WeatherDisplay:10.37,2013-02-05 17:46:00,
2013-02-05 10:51:00,38.7,27.9,29.29,NNE,22,0.0,0.0,65,0.00,CLR,,0.00,WeatherDisplay:10.37,2013-02-05 17:51:00,
2013-02-05 10:56:00,39.2,28.4,29.29,ESE,112,0.0,0.3,65,0.00,CLR,,0.00,WeatherDisplay:10.37,2013-02-05 17:56:00,
2013-02-05 11:01:00,40.1,29.3,29.29,WNW,292,6.9,6.9,65,0.00,CLR,,0.00,WeatherDisplay:10.37,2013-02-05 18:01:00,
2013-02-05 11:06:00,41.0,30.1,29.29,WNW,292,2.3,2.3,65,0.00,CLR,,0.00,WeatherDisplay:10.37,2013-02-05 18:06:00,
2013-02-05 11:11:00,41.9,30.6,29.29,WSW,248,2.3,2.3,64,0.00,CLR,,0.00,WeatherDisplay:10.37,2013-02-05 18:11:00,
2013-02-05 11:16:00,42.6,30.9,29.29,ENE,68,9.2,9.2,63,0.00,CLR,,0.00,WeatherDisplay:10.37,2013-02-05 18:16:00,
2013-02-05 11:21:00,43.3,31.6,29.29,NE,45,4.6,4.6,63,0.00,CLR,,0.00,WeatherDisplay:10.37,2013-02-05 18:21:00,
2013-02-05 11:26:00,44.1,31.9,29.31,NNW,338,6.9,6.9,62,0.00,CLR,,0.00,WeatherDisplay:10.37,2013-02-05 18:26:00,
2013-02-05 11:31:00,44.4,31.8,29.31,North,0,3.5,3.5,61,0.00,CLR,,0.00,WeatherDisplay:10.37,2013-02-05 18:31:00,
2013-02-05 11:36:00,45.5,32.8,29.31,ESE,112,0.0,0.5,61,0.00,CLR,,0.00,WeatherDisplay:10.37,2013-02-05 18:36:00,
2013-02-05 11:41:00,45.7,33.0,29.31,NW,315,0.0,0.5,61,0.00,CLR,,0.00,WeatherDisplay:10.37,2013-02-05 18:41:00,
2013-02-05 11:46:00,46.4,33.3,29.33,South,180,0.0,0.2,60,0.00,CLR,,0.00,WeatherDisplay:10.37,2013-02-05 18:46:00,
2013-02-05 11:51:00,47.1,33.9,29.33,SSW,202,0.0,0.0,60,0.00,CLR,,0.00,WeatherDisplay:10.37,2013-02-05 18:51:00,
2013-02-05 11:56:00,47.8,34.2,29.33,ENE,68,8.9,8.9,59,0.00,CLR,,0.00,WeatherDisplay:10.37,2013-02-05 18:56:00,
2013-02-05 12:01:00,48.4,34.7,29.33,ESE,112,0.0,0.9,59,0.00,CLR,,0.00,WeatherDisplay:10.37,2013-02-05 19:01:00,
2013-02-05 12:06:00,48.4,34.3,29.33,NNW,338,5.8,5.8,58,0.00,CLR,,0.00,WeatherDisplay:10.37,2013-02-05 19:06:00,
2013-02-05 12:11:00,48.7,34.2,29.33,ESE,112,2.5,2.5,57,0.00,CLR,,0.00,WeatherDisplay:10.37,2013-02-05 19:11:00,
2013-02-05 12:16:00,48.6,34.0,29.33,SSE,158,2.3,2.3,57,0.00,CLR,,0.00,WeatherDisplay:10.37,2013-02-05 19:16:00,
2013-02-05 12:21:00,48.6,34.0,29.33,SSE,158,2.3,2.3,57,0.00,CLR,,0.00,WeatherDisplay:10.37,2013-02-05 19:21:00,
2013-02-05 12:26:00,48.4,33.4,29.28,ENE,68,0.0,0.7,56,0.00,CLR,,0.00,WeatherDisplay:10.37,2013-02-05 19:26:00,
2013-02-05 12:31:00,48.4,33.4,29.28,East,90,0.0,0.5,56,0.00,CLR,,0.00,WeatherDisplay:10.37,2013-02-05 19:31:00,
2013-02-05 12:36:00,48.0,32.6,29.28,ENE,68,4.6,4.6,55,0.00,CLR,,0.00,WeatherDisplay:10.37,2013-02-05 19:36:00,
2013-02-05 12:41:00,47.8,32.9,29.28,SE,135,1.1,1.1,56,0.00,CLR,,0.00,WeatherDisplay:10.37,2013-02-05 19:41:00,
2013-02-05 12:46:00,47.7,32.7,29.27,ENE,68,0.0,0.5,56,0.00,CLR,,0.00,WeatherDisplay:10.37,2013-02-05 19:46:00,
2013-02-05 12:51:00,47.5,32.6,29.27,West,270,0.0,0.2,56,0.00,CLR,,0.00,WeatherDisplay:10.37,2013-02-05 19:51:00,
2013-02-05 12:56:00,47.3,32.8,29.27,SW,225,0.0,0.2,57,0.00,CLR,,0.00,WeatherDisplay:10.37,2013-02-05 19:56:00,
2013-02-05 13:01:00,47.3,32.8,29.27,NW,315,2.3,2.3,57,0.00,CLR,,0.00,WeatherDisplay:10.37,2013-02-05 20:01:00,
2013-02-05 13:06:00,47.1,32.7,29.27,WNW,292,0.0,0.2,57,0.00,CLR,,0.00,WeatherDisplay:10.37,2013-02-05 20:06:00,
2013-02-05 13:11:00,47.3,32.8,29.27,West,270,0.0,0.1,57,0.00,CLR,,0.00,WeatherDisplay:10.37,2013-02-05 20:11:00,
2013-02-05 13:16:00,47.1,32.7,29.27,ESE,112,3.5,3.5,57,0.00,CLR,,0.00,WeatherDisplay:10.37,2013-02-05 20:16:00,
2013-02-05 13:21:00,47.1,32.7,29.27,North,0,2.3,2.3,57,0.00,CLR,,0.00,WeatherDisplay:10.37,2013-02-05 20:21:00,
2013-02-05 13:26:00,47.1,33.1,29.26,NNE,22,3.5,3.5,58,0.00,CLR,,0.00,WeatherDisplay:10.37,2013-02-05 20:26:00,
2013-02-05 13:31:00,46.9,32.5,29.26,East,90,1.1,1.1,57,0.00,CLR,,0.00,WeatherDisplay:10.37,2013-02-05 20:31:00,
2013-02-05 13:36:00,47.1,33.1,29.26,SW,225,0.0,0.3,58,0.00,CLR,,0.00,WeatherDisplay:10.37,2013-02-05 20:36:00,
2013-02-05 13:41:00,47.5,33.4,29.26,WNW,292,0.0,0.1,58,0.00,CLR,,0.00,WeatherDisplay:10.37,2013-02-05 20:41:00,
2013-02-05 13:46:00,47.5,33.4,29.24,ESE,112,0.0,0.0,58,0.00,CLR,,0.00,WeatherDisplay:10.37,2013-02-05 20:46:00,
2013-02-05 13:51:00,47.3,33.3,29.24,West,270,0.0,0.0,58,0.00,CLR,,0.00,WeatherDisplay:10.37,2013-02-05 20:51:00,
2013-02-05 13:56:00,47.7,33.6,29.24,North,0,0.0,0.0,58,0.00,CLR,,0.00,WeatherDisplay:10.37,2013-02-05 20:56:00,
2013-02-05 14:01:00,48.0,33.9,29.24,WNW,292,0.0,0.0,58,0.00,CLR,,0.00,WeatherDisplay:10.37,2013-02-05 21:01:00,
2013-02-05 14:06:00,48.2,33.7,29.28,SSW,202,0.0,0.0,57,0.00,CLR,,0.00,WeatherDisplay:10.37,2013-02-05 21:06:00,
2013-02-05 14:11:00,48.6,34.0,29.28,WSW,248,0.0,0.0,57,0.00,CLR,,0.00,WeatherDisplay:10.37,2013-02-05 21:11:00,
2013-02-05 14:16:00,49.1,34.5,29.28,NE,45,2.3,2.3,57,0.00,CLR,,0.00,WeatherDisplay:10.37,2013-02-05 21:16:00,
2013-02-05 14:21:00,49.1,34.5,29.28,NE,45,3.5,3.5,57,0.00,CLR,,0.00,WeatherDisplay:10.37,2013-02-05 21:21:00,
2013-02-05 14:26:00,49.3,34.2,29.27,WSW,248,0.0,0.5,56,0.00,CLR,,0.00,WeatherDisplay:10.37,2013-02-05 21:26:00,
2013-02-05 14:31:00,49.1,34.1,29.27,WSW,248,0.0,0.3,56,0.00,CLR,,0.00,WeatherDisplay:10.37,2013-02-05 21:31:00,
2013-02-05 14:36:00,48.9,33.4,29.27,SSW,202,1.1,1.1,55,0.00,CLR,,0.00,WeatherDisplay:10.37,2013-02-05 21:36:00,
2013-02-05 14:41:00,48.6,33.1,29.27,SW,225,0.0,0.1,55,0.00,CLR,,0.00,WeatherDisplay:10.37,2013-02-05 21:41:00,
2013-02-05 14:47:00,48.6,33.1,29.21,SSW,202,0.0,0.1,55,0.00,CLR,,0.00,WeatherDisplay:10.37,2013-02-05 21:47:00,
2013-02-05 14:52:00,48.6,33.1,29.21,NNW,338,0.0,0.1,55,0.00,CLR,,0.00,WeatherDisplay:10.37,2013-02-05 21:52:00,
2013-02-05 14:57:00,48.7,33.3,29.21,NE,45,0.0,0.1,55,0.00,CLR,,0.00,WeatherDisplay:10.37,2013-02-05 21:57:00,
2013-02-05 15:02:00,48.7,33.3,29.21,NNW,338,0.0,0.1,55,0.00,CLR,,0.00,WeatherDisplay:10.37,2013-02-05 22:02:00,
2013-02-05 15:07:00,48.9,33.0,29.22,SW,225,0.0,0.3,54,0.00,CLR,,0.00,WeatherDisplay:10.37,2013-02-05 22:07:00,
2013-02-05 15:12:00,49.1,33.2,29.22,NNW,338,0.0,0.2,54,0.00,CLR,,0.00,WeatherDisplay:10.37,2013-02-05 22:12:00,
2013-02-05 15:17:00,49.1,32.7,29.22,NE,45,0.0,0.0,53,0.00,CLR,,0.00,WeatherDisplay:10.37,2013-02-05 22:17:00,
2013-02-05 15:22:00,49.3,32.9,29.22,ESE,112,0.0,0.0,53,0.00,CLR,,0.00,WeatherDisplay:10.37,2013-02-05 22:22:00,
2013-02-05 15:27:00,49.3,32.9,29.20,NNE,22,1.1,0.0,53,0.00,CLR,,0.00,WeatherDisplay:10.37,2013-02-05 22:27:00,
2013-02-05 15:32:00,49.5,32.6,29.20,ESE,112,1.1,1.1,52,0.00,CLR,,0.00,WeatherDisplay:10.37,2013-02-05 22:32:00,
2013-02-05 15:37:00,49.1,32.2,29.20,NE,45,0.0,0.2,52,0.00,CLR,,0.00,WeatherDisplay:10.37,2013-02-05 22:37:00,
2013-02-05 15:42:00,48.9,32.0,29.20,SSW,202,2.3,2.3,52,0.00,CLR,,0.00,WeatherDisplay:10.37,2013-02-05 22:42:00,
2013-02-05 15:47:00,48.7,31.9,29.20,SSW,202,0.0,0.1,52,0.00,CLR,,0.00,WeatherDisplay:10.37,2013-02-05 22:47:00,
2013-02-05 15:52:00,48.6,31.7,29.20,SSW,202,0.0,0.0,52,0.00,CLR,,0.00,WeatherDisplay:10.37,2013-02-05 22:52:00,
2013-02-05 15:57:00,48.4,31.5,29.20,NE,45,0.0,0.1,52,0.00,CLR,,0.00,WeatherDisplay:10.37,2013-02-05 22:57:00,
2013-02-05 16:02:00,48.4,32.0,29.20,North,0,0.0,0.2,53,0.00,CLR,,0.00,WeatherDisplay:10.37,2013-02-05 23:02:00,
2013-02-05 16:07:00,48.4,31.5,29.20,ENE,68,0.0,0.2,52,0.00,CLR,,0.00,WeatherDisplay:10.37,2013-02-05 23:07:00,
2013-02-05 16:12:00,47.8,31.0,29.20,NNW,338,0.0,0.2,52,0.00,CLR,,0.00,WeatherDisplay:10.37,2013-02-05 23:12:00,
2013-02-05 16:17:00,47.7,30.9,29.20,West,270,0.0,0.2,52,0.00,CLR,,0.00,WeatherDisplay:10.37,2013-02-05 23:17:00,
2013-02-05 16:22:00,47.7,30.9,29.20,WNW,292,0.0,0.0,52,0.00,CLR,,0.00,WeatherDisplay:10.37,2013-02-05 23:22:00,
2013-02-05 16:27:00,47.7,30.9,29.20,SSW,202,0.0,0.0,52,0.00,CLR,,0.00,WeatherDisplay:10.37,2013-02-05 23:27:00,
2013-02-05 16:32:00,47.3,30.5,29.20,SE,135,0.0,0.0,52,0.00,CLR,,0.00,WeatherDisplay:10.37,2013-02-05 23:32:00,
2013-02-05 16:37:00,47.1,30.4,29.20,East,90,0.0,0.1,52,0.00,CLR,,0.00,WeatherDisplay:10.37,2013-02-05 23:37:00,
2013-02-05 16:43:00,46.9,30.2,29.20,ENE,68,0.0,0.5,52,0.00,CLR,,0.00,WeatherDisplay:10.37,2013-02-05 23:43:00,
2013-02-05 16:48:00,46.9,30.7,29.20,SSW,202,0.0,0.3,53,0.00,CLR,,0.00,WeatherDisplay:10.37,2013-02-05 23:48:00,
2013-02-05 16:53:00,46.6,30.3,29.20,SE,135,0.0,0.0,53,0.00,CLR,,0.00,WeatherDisplay:10.37,2013-02-05 23:53:00,
2013-02-05 16:58:00,46.2,30.0,29.20,SSW,202,0.0,0.0,53,0.00,CLR,,0.00,WeatherDisplay:10.37,2013-02-05 23:58:00,
2013-02-05 17:03:00,45.9,30.1,29.20,SSE,158,0.0,0.0,54,0.00,CLR,,0.00,WeatherDisplay:10.37,2013-02-06 00:03:00,
2013-02-05 17:08:00,45.7,30.0,29.20,SE,135,0.0,0.0,54,0.00,CLR,,0.00,WeatherDisplay:10.37,2013-02-06 00:08:00,
2013-02-05 17:13:00,45.1,29.5,29.20,ESE,112,0.0,0.0,54,0.00,CLR,,0.00,WeatherDisplay:10.37,2013-02-06 00:13:00,
2013-02-05 17:18:00,45.0,29.8,29.20,SE,135,0.0,0.0,55,0.00,CLR,,0.00,WeatherDisplay:10.37,2013-02-06 00:18:00,
2013-02-05 17:23:00,44.8,29.6,29.20,SSE,158,0.0,0.0,55,0.00,CLR,,0.00,WeatherDisplay:10.37,2013-02-06 00:23:00,
2013-02-05 17:28:00,44.2,29.1,29.21,ESE,112,0.0,0.0,55,0.00,CLR,,0.00,WeatherDisplay:10.37,2013-02-06 00:28:00,
2013-02-05 17:33:00,44.1,28.9,29.21,NNW,338,0.0,0.0,55,0.00,CLR,,0.00,WeatherDisplay:10.37,2013-02-06 00:33:00,
2013-02-05 17:38:00,43.7,29.0,29.21,NNE,22,0.0,0.0,56,0.00,CLR,,0.00,WeatherDisplay:10.37,2013-02-06 00:38:00,
2013-02-05 17:43:00,43.3,28.7,29.21,NW,315,0.0,0.0,56,0.00,CLR,,0.00,WeatherDisplay:10.37,2013-02-06 00:43:00,
2013-02-05 17:48:00,43.0,28.3,29.21,WNW,292,0.0,0.0,56,0.00,CLR,,0.00,WeatherDisplay:10.37,2013-02-06 00:48:00,
2013-02-05 17:53:00,42.3,28.1,29.21,West,270,0.0,0.0,57,0.00,CLR,,0.00,WeatherDisplay:10.37,2013-02-06 00:53:00,
2013-02-05 17:58:00,41.9,27.8,29.21,NNE,22,0.0,0.0,57,0.00,CLR,,0.00,WeatherDisplay:10.37,2013-02-06 00:58:00,
2013-02-05 18:04:00,41.4,27.3,29.20,NNE,22,0.0,0.0,57,0.00,CLR,,0.00,WeatherDisplay:10.37,2013-02-06 01:04:00,
2013-02-05 18:09:00,40.8,26.7,29.20,NNW,338,0.0,0.0,57,0.00,CLR,,0.00,WeatherDisplay:10.37,2013-02-06 01:09:00,
2013-02-05 18:14:00,40.5,26.8,29.20,North,0,0.0,0.0,58,0.00,CLR,,0.00,WeatherDisplay:10.37,2013-02-06 01:14:00,
2013-02-05 18:19:00,40.1,26.5,29.20,NNE,22,0.0,0.0,58,0.00,CLR,,0.00,WeatherDisplay:10.37,2013-02-06 01:19:00,
2013-02-05 18:24:00,39.7,26.2,29.20,NNW,338,0.0,0.0,58,0.00,CLR,,0.00,WeatherDisplay:10.37,2013-02-06 01:24:00,
2013-02-05 18:29:00,39.4,26.2,29.20,North,0,0.0,0.0,59,0.00,CLR,,0.00,WeatherDisplay:10.37,2013-02-06 01:29:00,
2013-02-05 18:34:00,38.7,25.6,29.20,NNW,338,0.0,0.0,59,0.00,CLR,,0.00,WeatherDisplay:10.37,2013-02-06 01:34:00,
2013-02-05 18:39:00,38.5,25.4,29.20,NNW,338,0.0,0.0,59,0.00,CLR,,0.00,WeatherDisplay:10.37,2013-02-06 01:39:00,
2013-02-05 18:44:00,38.3,25.2,29.20,North,0,0.0,0.0,59,0.00,CLR,,0.00,WeatherDisplay:10.37,2013-02-06 01:44:00,
2013-02-05 18:49:00,37.8,24.7,29.20,North,0,0.0,0.0,59,0.00,CLR,,0.00,WeatherDisplay:10.37,2013-02-06 01:49:00,
2013-02-05 18:54:00,37.6,24.9,29.20,North,0,0.0,0.0,60,0.00,CLR,,0.00,WeatherDisplay:10.37,2013-02-06 01:54:00,
2013-02-05 18:59:00,37.0,24.4,29.20,North,0,0.0,0.0,60,0.00,CLR,,0.00,WeatherDisplay:10.37,2013-02-06 01:59:00,
2013-02-05 19:04:00,36.9,24.3,29.21,SE,135,0.0,0.0,60,0.00,CLR,,0.00,WeatherDisplay:10.37,2013-02-06 02:04:00,
2013-02-05 19:09:00,36.3,24.1,29.21,East,90,0.0,0.0,61,0.00,CLR,,0.00,WeatherDisplay:10.37,2013-02-06 02:09:00,
2013-02-05 19:14:00,36.1,24.0,29.21,North,0,0.0,0.0,61,0.00,CLR,,0.00,WeatherDisplay:10.37,2013-02-06 02:14:00,
2013-02-05 19:19:00,36.0,23.8,29.21,North,0,0.0,0.0,61,0.00,CLR,,0.00,WeatherDisplay:10.37,2013-02-06 02:19:00,
2013-02-05 19:24:00,35.8,23.6,29.21,North,0,0.0,0.0,61,0.00,CLR,,0.00,WeatherDisplay:10.37,2013-02-06 02:24:00,
2013-02-05 19:29:00,35.6,23.5,29.21,North,0,0.0,0.0,61,0.00,CLR,,0.00,WeatherDisplay:10.37,2013-02-06 02:29:00,
2013-02-05 19:34:00,35.4,23.3,29.21,North,0,0.0,0.0,61,0.00,CLR,,0.00,WeatherDisplay:10.37,2013-02-06 02:34:00,
2013-02-05 19:39:00,35.4,23.7,29.21,NNW,338,0.0,0.0,62,0.00,CLR,,0.00,WeatherDisplay:10.37,2013-02-06 02:39:00,
2013-02-05 19:44:00,35.2,23.5,29.20,NNW,338,0.0,0.0,62,0.00,CLR,,0.00,WeatherDisplay:10.37,2013-02-06 02:44:00,
2013-02-05 19:49:00,35.4,23.7,29.20,North,0,0.0,0.0,62,0.00,CLR,,0.00,WeatherDisplay:10.37,2013-02-06 02:49:00,
2013-02-05 19:54:00,35.1,23.3,29.20,NNW,338,0.0,0.0,62,0.00,CLR,,0.00,WeatherDisplay:10.37,2013-02-06 02:54:00,
2013-02-05 19:59:00,34.9,23.2,29.20,North,0,0.0,0.0,62,0.00,CLR,,0.00,WeatherDisplay:10.37,2013-02-06 02:59:00,
2013-02-05 20:04:00,34.9,23.2,29.20,NNW,338,0.0,0.0,62,0.00,CLR,,0.00,WeatherDisplay:10.37,2013-02-06 03:04:00,
2013-02-05 20:09:00,34.9,23.6,29.20,ENE,68,0.0,0.0,63,0.00,CLR,,0.00,WeatherDisplay:10.37,2013-02-06 03:09:00,
2013-02-05 20:14:00,34.7,23.4,29.20,North,0,0.0,0.0,63,0.00,CLR,,0.00,WeatherDisplay:10.37,2013-02-06 03:14:00,
2013-02-05 20:19:00,34.7,23.4,29.20,North,0,0.0,0.0,63,0.00,CLR,,0.00,WeatherDisplay:10.37,2013-02-06 03:19:00,
2013-02-05 20:24:00,34.7,23.4,29.20,North,0,0.0,0.0,63,0.00,CLR,,0.00,WeatherDisplay:10.37,2013-02-06 03:24:00,
2013-02-05 20:29:00,34.7,23.4,29.20,North,0,0.0,0.0,63,0.00,CLR,,0.00,WeatherDisplay:10.37,2013-02-06 03:29:00,
2013-02-05 20:34:00,34.5,23.2,29.20,North,0,0.0,0.0,63,0.00,CLR,,0.00,WeatherDisplay:10.37,2013-02-06 03:34:00,
2013-02-05 20:39:00,34.5,23.2,29.20,North,0,0.0,0.0,63,0.00,CLR,,0.00,WeatherDisplay:10.37,2013-02-06 03:39:00,
2013-02-05 20:44:00,34.3,23.4,29.20,North,0,0.0,0.0,64,0.00,CLR,,0.00,WeatherDisplay:10.37,2013-02-06 03:44:00,
2013-02-05 20:49:00,34.2,23.2,29.20,NNW,338,0.0,0.0,64,0.00,CLR,,0.00,WeatherDisplay:10.37,2013-02-06 03:49:00,
2013-02-05 20:54:00,34.2,23.2,29.20,NNW,338,0.0,0.0,64,0.00,CLR,,0.00,WeatherDisplay:10.37,2013-02-06 03:54:00,
2013-02-05 21:00:00,34.0,23.1,29.20,ENE,68,0.0,0.0,64,0.00,CLR,,0.00,WeatherDisplay:10.37,2013-02-06 04:00:00,
2013-02-05 21:05:00,33.6,22.7,29.19,WNW,292,0.0,0.0,64,0.00,CLR,,0.00,WeatherDisplay:10.37,2013-02-06 04:05:00,
2013-02-05 21:10:00,33.3,22.4,29.19,NNE,22,0.0,0.0,64,0.00,CLR,,0.00,WeatherDisplay:10.37,2013-02-06 04:10:00,
2013-02-05 21:15:00,33.3,22.4,29.19,NW,315,0.0,0.0,64,0.00,CLR,,0.00,WeatherDisplay:10.37,2013-02-06 04:15:00,
2013-02-05 21:20:00,32.7,21.9,29.19,North,0,0.0,0.0,64,0.00,CLR,,0.00,WeatherDisplay:10.37,2013-02-06 04:20:00,
2013-02-05 21:25:00,32.7,22.2,29.20,SW,225,0.0,0.0,65,0.00,CLR,,0.00,WeatherDisplay:10.37,2013-02-06 04:25:00,
2013-02-05 21:30:00,32.5,22.1,29.20,North,0,0.0,0.0,65,0.00,CLR,,0.00,WeatherDisplay:10.37,2013-02-06 04:30:00,
2013-02-05 21:35:00,32.2,21.7,29.20,North,0,0.0,0.0,65,0.00,CLR,,0.00,WeatherDisplay:10.37,2013-02-06 04:35:00,
2013-02-05 21:40:00,31.8,21.4,29.20,NE,45,0.0,0.0,65,0.00,CLR,,0.00,WeatherDisplay:10.37,2013-02-06 04:40:00,
2013-02-05 21:45:00,31.8,21.4,29.20,NW,315,0.0,0.0,65,0.00,CLR,,0.00,WeatherDisplay:10.37,2013-02-06 04:45:00,
2013-02-05 23:55:00,30.0,20.4,29.25,NNW,338,0.0,0.0,67,0.00,CLR,,0.00,WeatherDisplay:10.37,2013-02-06 06:55:00,
2013-02-05 23:56:00,30.0,20.4,29.25,NNW,338,0.0,0.0,67,0.00,CLR,,0.00,WeatherDisplay:10.37,2013-02-06 06:56:00,